Time;durP1;ratioP1;P1;durP2;ratioP2;P2;SDS_P1;SDS_P2;PMS_P1;PMS_P2;Temp;Humidity;BMP_temperature;BMP_pressure;BME280_temperature;BME280_humidity;BME280_pressure;Samples;Min_cycle;Max_cycle;Signal;HPM_P1;HPM_P2
2021/03/27 00:04:21;;;;;;;107.73;57.03;;;;;;;7.87;52.96;99405.47;248536;1155;115607;-78
2021/03/27 00:09:30;;;;;;;111.40;58.50;;;;;;;7.76;53.08;99403.31;248551;1162;114859;-78
2021/03/27 00:14:38;;;;;;;120.28;58.65;;;;;;;7.74;52.88;99403.36;248598;1153;114822;-76
2021/03/27 00:20:00;;;;;;;120.20;60.38;;;;;;;7.64;53.14;99402.05;248579;1154;115178;-79
2021/03/27 00:25:08;;;;;;;118.05;62.13;;;;;;;7.59;52.99;99398.77;248529;1154;114949;-85
2021/03/27 00:30:23;;;;;;;118.15;61.13;;;;;;;7.59;53.39;99402.27;248547;1154;114763;-85
2021/03/27 00:35:38;;;;;;;117.40;63.67;;;;;;;7.57;54.27;99397.95;248586;1154;114704;-85
2021/03/27 00:40:52;;;;;;;129.23;65.68;;;;;;;7.57;53.99;99395.30;248602;1152;114892;-86
2021/03/27 00:46:00;;;;;;;127.60;66.15;;;;;;;7.62;54.22;99395.13;248558;1154;115571;-85
2021/03/27 00:51:28;;;;;;;120.38;63.03;;;;;;;7.65;54.83;99390.55;248482;1154;115028;-86
2021/03/27 00:56:47;;;;;;;116.83;62.38;;;;;;;7.72;54.03;99393.78;247658;1154;114818;-86
2021/03/27 01:01:55;;;;;;;114.45;61.85;;;;;;;7.74;54.40;99383.96;248458;1154;114952;-85
2021/03/27 01:07:13;;;;;;;124.17;64.37;;;;;;;7.76;54.82;99382.12;248510;1155;117175;-86
2021/03/27 01:12:38;;;;;;;120.20;64.28;;;;;;;7.76;55.05;99377.67;248503;1154;114878;-85
2021/03/27 01:17:44;;;;;;;118.98;61.90;;;;;;;7.78;54.71;99380.27;248447;1154;114945;-86
2021/03/27 01:22:50;;;;;;;110.97;61.70;;;;;;;7.74;54.84;99374.22;248499;1162;115349;-79
2021/03/27 01:28:06;;;;;;;122.83;63.98;;;;;;;7.68;54.64;99369.23;248609;1162;114856;-86
2021/03/27 01:33:29;;;;;;;110.63;62.25;;;;;;;7.62;54.92;99363.34;248576;1155;115197;-86
2021/03/27 01:38:40;;;;;;;110.15;61.63;;;;;;;7.50;55.06;99359.44;248307;1154;115281;-86
2021/03/27 01:44:05;;;;;;;116.05;61.33;;;;;;;7.42;54.71;99359.78;248433;1155;114720;-86
2021/03/27 01:49:26;;;;;;;110.38;60.23;;;;;;;7.26;54.58;99351.64;248561;1154;114971;-86
2021/03/27 01:54:45;;;;;;;113.53;61.83;;;;;;;7.12;54.54;99348.73;248619;1154;115527;-85
2021/03/27 02:00:01;;;;;;;119.43;63.78;;;;;;;7.04;55.34;99349.06;248582;1154;114720;-86
2021/03/27 02:05:31;;;;;;;117.28;62.05;;;;;;;6.96;54.87;99360.89;248519;1155;114995;-85
2021/03/27 02:10:56;;;;;;;119.13;64.35;;;;;;;6.86;55.21;99355.12;248394;1154;115228;-86
2021/03/27 02:16:22;;;;;;;119.70;64.27;;;;;;;6.75;55.79;99355.56;248554;1162;115179;-86
2021/03/27 02:21:49;;;;;;;122.28;67.18;;;;;;;6.69;56.18;99354.95;248507;1155;115493;-86
2021/03/27 02:26:58;;;;;;;125.20;63.43;;;;;;;6.62;56.07;99352.59;248571;1154;115345;-86
2021/03/27 02:32:38;;;;;;;126.80;67.08;;;;;;;6.55;56.15;99348.45;248388;1155;114903;-82
2021/03/27 02:38:15;;;;;;;123.50;67.23;;;;;;;6.51;55.79;99341.56;246742;1162;114784;-86
2021/03/27 02:43:42;;;;;;;126.35;66.50;;;;;;;6.50;55.91;99346.94;248514;1162;114986;-84
2021/03/27 02:49:08;;;;;;;121.45;64.60;;;;;;;6.46;56.63;99347.98;247802;1156;114933;-85
2021/03/27 02:54:23;;;;;;;129.53;66.73;;;;;;;6.42;56.47;99346.36;248504;1154;115053;-79
2021/03/27 02:59:46;;;;;;;125.95;66.80;;;;;;;6.41;56.73;99342.86;248607;1153;114751;-79
2021/03/27 03:05:03;;;;;;;129.78;65.90;;;;;;;6.39;56.45;99345.58;248376;1155;114998;-79
2021/03/27 03:10:17;;;;;;;128.03;66.08;;;;;;;6.34;56.18;99342.25;248568;1153;115386;-79
2021/03/27 03:15:26;;;;;;;120.73;63.93;;;;;;;6.26;56.67;99344.34;248584;1162;114766;-85
2021/03/27 03:20:44;;;;;;;120.35;63.80;;;;;;;6.20;56.71;99335.80;248534;1154;115657;-87
2021/03/27 03:26:18;;;;;;;123.53;65.63;;;;;;;6.09;56.41;99328.30;248594;1154;114963;-86
2021/03/27 03:31:43;;;;;;;131.53;65.30;;;;;;;6.01;56.33;99319.79;248452;1155;115323;-86
2021/03/27 03:37:05;;;;;;;118.00;62.30;;;;;;;5.91;56.78;99321.92;248556;1158;114763;-86
2021/03/27 03:42:40;;;;;;;122.45;64.48;;;;;;;5.83;56.82;99314.27;248582;1155;114897;-85
2021/03/27 03:48:21;;;;;;;126.05;64.40;;;;;;;5.77;57.31;99322.42;248502;1161;115157;-85
2021/03/27 03:53:39;;;;;;;121.53;64.03;;;;;;;5.66;57.38;99321.97;248581;1154;115134;-85
2021/03/27 03:59:16;;;;;;;119.30;59.63;;;;;;;5.61;57.87;99313.38;246606;1155;114917;-84
2021/03/27 04:04:27;;;;;;;115.48;61.88;;;;;;;5.56;57.24;99315.31;248614;1161;115209;-85
2021/03/27 04:09:49;;;;;;;111.00;61.05;;;;;;;5.51;57.72;99306.72;248587;1154;114804;-85
2021/03/27 04:15:37;;;;;;;118.70;62.70;;;;;;;5.48;57.57;99301.55;248620;1154;114811;-85
2021/03/27 04:20:53;;;;;;;118.55;60.70;;;;;;;5.46;58.14;99297.17;248539;1154;115558;-85
2021/03/27 04:26:26;;;;;;;111.28;60.48;;;;;;;5.46;58.33;99299.81;248479;1154;114544;-85
2021/03/27 04:31:40;;;;;;;113.00;61.10;;;;;;;5.48;58.06;99304.19;248466;1156;115336;-84
2021/03/27 04:36:49;;;;;;;108.05;58.88;;;;;;;5.50;58.87;99312.89;248030;1155;114828;-84
2021/03/27 04:42:02;;;;;;;110.80;60.33;;;;;;;5.56;58.91;99310.89;248175;1152;114816;-84
2021/03/27 04:47:23;;;;;;;111.43;58.30;;;;;;;5.61;58.85;99311.59;248517;1155;114962;-84
2021/03/27 04:52:28;;;;;;;102.93;56.00;;;;;;;5.66;58.44;99308.77;248606;1155;114531;-84
2021/03/27 04:57:41;;;;;;;110.70;57.00;;;;;;;5.68;58.88;99306.95;247801;1154;114667;-85
2021/03/27 05:03:08;;;;;;;111.85;60.55;;;;;;;5.74;58.33;99305.83;246960;1162;115127;-86
2021/03/27 05:08:41;;;;;;;112.65;59.98;;;;;;;5.82;58.27;99307.28;246577;1154;114926;-87
2021/03/27 05:13:57;;;;;;;105.50;58.93;;;;;;;5.95;58.40;99301.56;247966;1152;115124;-86
2021/03/27 05:19:15;;;;;;;114.85;60.35;;;;;;;6.04;58.52;99303.83;248600;1154;115115;-86
2021/03/27 05:24:37;;;;;;;109.00;61.23;;;;;;;6.13;59.11;99304.33;247538;1161;114642;-87
2021/03/27 05:29:46;;;;;;;105.40;57.63;;;;;;;6.21;58.46;99300.52;248007;1162;114992;-87
2021/03/27 05:34:53;;;;;;;106.05;58.00;;;;;;;6.30;58.56;99300.16;248305;1162;114766;-78
2021/03/27 05:40:26;;;;;;;97.93;56.20;;;;;;;6.42;58.52;99298.78;248451;1153;114962;-77
2021/03/27 05:46:11;;;;;;;94.98;53.13;;;;;;;6.53;59.16;99301.87;248656;1160;114546;-77
2021/03/27 05:51:41;;;;;;;99.08;54.53;;;;;;;6.64;58.99;99302.27;248510;1152;114812;-76
2021/03/27 05:57:15;;;;;;;92.85;51.85;;;;;;;6.77;58.87;99298.19;248610;1162;115128;-77
2021/03/27 06:02:21;;;;;;;95.53;50.90;;;;;;;6.90;58.33;99297.68;248477;1155;114412;-77
2021/03/27 06:07:43;;;;;;;89.28;49.95;;;;;;;7.05;58.96;99302.30;246198;1162;115073;-78
2021/03/27 06:13:14;;;;;;;86.78;50.40;;;;;;;7.18;58.99;99299.98;248676;1154;115423;-76
2021/03/27 06:18:52;;;;;;;85.33;48.73;;;;;;;7.32;58.38;99287.84;248639;1162;114789;-77
2021/03/27 06:24:18;;;;;;;85.05;49.50;;;;;;;7.48;58.84;99295.97;248697;1154;114275;-76
2021/03/27 06:29:49;;;;;;;85.60;50.38;;;;;;;7.64;58.90;99287.30;248621;1155;114793;-77
2021/03/27 06:34:59;;;;;;;85.55;51.08;;;;;;;7.81;58.26;99285.61;248606;1154;115028;-77
2021/03/27 06:40:39;;;;;;;87.85;50.48;;;;;;;8.02;58.45;99283.73;248618;1155;115184;-77
2021/03/27 06:46:00;;;;;;;94.78;53.10;;;;;;;8.25;58.72;99285.29;248685;1155;115188;-76
2021/03/27 06:51:17;;;;;;;95.60;51.53;;;;;;;8.43;58.61;99274.74;247472;1162;114904;-83
2021/03/27 06:56:59;;;;;;;83.45;50.18;;;;;;;8.56;58.14;99275.85;248156;1162;114832;-87
2021/03/27 07:02:23;;;;;;;92.75;52.20;;;;;;;8.73;57.97;99281.16;247990;1155;115045;-87
2021/03/27 07:07:26;;;;;;;91.28;50.58;;;;;;;8.93;58.59;99282.81;248659;1155;114536;-88
2021/03/27 07:13:07;;;;;;;87.13;50.13;;;;;;;9.09;57.85;99287.31;245697;1162;115048;-91
2021/03/27 07:18:40;;;;;;;84.43;49.53;;;;;;;9.27;58.15;99286.33;247196;1162;115486;-89
2021/03/27 07:23:57;;;;;;;81.70;47.40;;;;;;;9.47;58.26;99282.63;247415;1154;114817;-88
2021/03/27 07:29:34;;;;;;;82.70;47.13;;;;;;;9.69;58.35;99274.36;248501;1155;114437;-86
2021/03/27 07:35:10;;;;;;;76.80;44.50;;;;;;;9.93;57.87;99272.16;248698;1154;114797;-82
2021/03/27 07:40:22;;;;;;;82.68;45.10;;;;;;;10.16;57.54;99270.88;247241;1162;115086;-84
2021/03/27 07:45:30;;;;;;;82.65;45.90;;;;;;;10.37;57.05;99264.34;248506;1162;116453;-82
2021/03/27 07:50:44;;;;;;;78.28;43.23;;;;;;;10.59;57.08;99261.28;248508;1155;115042;-82
2021/03/27 07:56:12;;;;;;;76.68;40.38;;;;;;;10.81;56.51;99260.89;247956;1154;115667;-82
2021/03/27 08:01:21;;;;;;;63.60;36.73;;;;;;;11.07;56.59;99251.34;248440;1153;115024;-83
2021/03/27 08:06:43;;;;;;;60.65;30.65;;;;;;;11.35;55.95;99244.33;248578;1161;116025;-83
2021/03/27 08:12:00;;;;;;;39.45;23.75;;;;;;;11.70;55.62;99242.11;248600;1161;115162;-83
2021/03/27 08:17:42;;;;;;;42.37;25.50;;;;;;;12.04;54.75;99243.50;248747;1154;115263;-83
2021/03/27 08:23:06;;;;;;;42.85;25.10;;;;;;;12.38;54.69;99235.10;247538;1155;114947;-81
2021/03/27 08:28:37;;;;;;;40.48;24.15;;;;;;;12.64;53.09;99234.22;248590;1154;114922;-82
2021/03/27 08:34:10;;;;;;;39.38;24.45;;;;;;;12.92;52.88;99235.02;247556;1154;115141;-82
2021/03/27 08:39:50;;;;;;;39.03;23.98;;;;;;;13.17;53.07;99234.16;247080;1161;115677;-85
2021/03/27 08:45:44;;;;;;;36.50;21.85;;;;;;;13.42;52.13;99223.51;248277;1154;114766;-84
2021/03/27 08:51:17;;;;;;;34.60;20.40;;;;;;;13.69;51.99;99220.69;248558;1154;114952;-84
2021/03/27 08:57:03;;;;;;;33.78;19.50;;;;;;;13.95;51.33;99210.75;248588;1154;114622;-84
2021/03/27 09:02:48;;;;;;;37.77;17.90;;;;;;;14.23;51.29;99200.67;248543;1154;115438;-83
2021/03/27 09:08:05;;;;;;;29.18;16.50;;;;;;;14.51;49.96;99198.66;248395;1155;114921;-80
2021/03/27 09:13:47;;;;;;;24.65;15.35;;;;;;;14.74;49.54;99195.09;248583;1154;114835;-81
2021/03/27 09:19:24;;;;;;;28.33;15.03;;;;;;;14.97;48.94;99179.05;245891;1154;115040;-80
2021/03/27 09:24:50;;;;;;;31.78;18.83;;;;;;;15.41;50.38;99183.58;248583;1154;115199;-84
2021/03/27 09:29:58;;;;;;;30.23;17.85;;;;;;;16.03;51.07;99175.00;248448;1155;114983;-84
2021/03/27 09:35:16;;;;;;;24.28;14.65;;;;;;;16.56;50.19;99174.17;248516;1154;115403;-82
2021/03/27 09:40:29;;;;;;;30.13;14.98;;;;;;;16.82;48.66;99165.77;248565;1152;115051;-87
2021/03/27 09:45:50;;;;;;;27.78;17.43;;;;;;;17.16;49.13;99164.55;247415;1154;114887;-82
2021/03/27 09:51:22;;;;;;;29.95;17.28;;;;;;;17.34;49.30;99155.84;248360;1155;115579;-78
2021/03/27 09:56:42;;;;;;;23.60;13.50;;;;;;;17.44;46.82;99157.59;247860;1162;115218;-74
2021/03/27 10:02:03;;;;;;;31.28;13.65;;;;;;;17.54;47.00;99146.86;248514;1162;115115;-74
2021/03/27 10:07:21;;;;;;;20.78;12.33;;;;;;;17.66;45.89;99145.78;248533;1155;115654;-75
2021/03/27 10:12:43;;;;;;;22.35;14.80;;;;;;;17.86;46.11;99151.22;248486;1154;115322;-75
2021/03/27 10:17:55;;;;;;;14.83;9.20;;;;;;;17.96;44.25;99141.31;248478;1154;114982;-73
2021/03/27 10:23:17;;;;;;;16.75;8.98;;;;;;;18.05;43.70;99143.18;248538;1162;115030;-73
2021/03/27 10:28:30;;;;;;;16.43;9.40;;;;;;;18.14;43.12;99147.73;248591;1154;117361;-74
2021/03/27 10:34:07;;;;;;;19.10;9.18;;;;;;;18.28;42.77;99141.08;248589;1154;114796;-74
2021/03/27 10:39:36;;;;;;;17.08;9.10;;;;;;;18.40;42.00;99149.85;248697;1154;115001;-73
2021/03/27 10:45:07;;;;;;;15.80;8.38;;;;;;;18.53;41.66;99142.33;248558;1154;114919;-74
2021/03/27 10:50:26;;;;;;;14.13;8.43;;;;;;;18.70;41.37;99134.52;248528;1154;115047;-74
2021/03/27 10:56:03;;;;;;;11.90;8.37;;;;;;;18.90;40.57;99138.91;246428;1162;115028;-74
2021/03/27 11:01:51;;;;;;;13.33;8.13;;;;;;;18.99;40.19;99121.00;248427;1154;116833;-74
2021/03/27 11:07:36;;;;;;;16.43;8.40;;;;;;;19.01;40.01;99121.69;246063;1154;115340;-77
2021/03/27 11:13:18;;;;;;;16.63;9.05;;;;;;;19.07;39.35;99113.02;246012;1155;115688;-77
2021/03/27 11:18:51;;;;;;;19.40;11.95;;;;;;;19.01;39.07;99124.39;247097;1158;114951;-83
2021/03/27 11:24:13;;;;;;;22.40;15.23;;;;;;;19.00;39.57;99128.09;248480;1162;115438;-77
2021/03/27 11:29:32;;;;;;;16.80;10.73;;;;;;;19.03;39.49;99117.01;247099;1154;115185;-83
2021/03/27 11:35:12;;;;;;;14.70;9.80;;;;;;;19.04;39.15;99124.94;248538;1154;114717;-84
2021/03/27 11:40:25;;;;;;;13.43;8.43;;;;;;;19.06;38.53;99124.81;247491;1155;114752;-87
2021/03/27 11:45:40;;;;;;;17.27;9.80;;;;;;;19.07;38.60;99127.34;247931;1161;114985;-89
2021/03/27 11:51:04;;;;;;;14.83;8.28;;;;;;;19.08;38.51;99120.10;248556;1155;114831;-79
2021/03/27 11:56:21;;;;;;;27.55;19.23;;;;;;;19.05;37.97;99123.09;248542;1154;115002;-79
2021/03/27 12:01:32;;;;;;;13.83;8.45;;;;;;;19.06;37.73;99122.11;248536;1152;115067;-79
2021/03/27 12:07:22;;;;;;;19.03;8.75;;;;;;;19.21;37.84;99117.92;248548;1154;114718;-81
2021/03/27 12:12:32;;;;;;;21.13;13.35;;;;;;;19.45;37.25;99121.94;248468;1158;114739;-77
2021/03/27 12:17:57;;;;;;;45.45;32.03;;;;;;;19.65;37.22;99106.52;248557;1154;115599;-78
2021/03/27 12:23:11;;;;;;;32.28;21.88;;;;;;;19.98;37.53;99115.84;248578;1154;117187;-83
2021/03/27 12:28:30;;;;;;;16.78;9.55;;;;;;;20.28;36.92;99111.91;248597;1154;115365;-75
2021/03/27 12:33:47;;;;;;;10.55;7.40;;;;;;;20.41;36.11;99106.92;248379;1154;115272;-75
2021/03/27 12:38:49;;;;;;;11.63;8.13;;;;;;;20.40;35.72;99116.05;246783;1155;115475;-78
2021/03/27 12:43:58;;;;;;;14.93;7.95;;;;;;;20.41;35.63;99125.85;248586;1155;115358;-79
2021/03/27 12:49:07;;;;;;;22.40;15.60;;;;;;;20.28;35.34;99128.13;248458;1162;114946;-79
2021/03/27 12:54:33;;;;;;;11.83;8.55;;;;;;;20.12;34.93;99127.97;248485;1155;115710;-77
2021/03/27 12:59:46;;;;;;;13.23;7.13;;;;;;;19.80;34.51;99148.20;248025;1155;115373;-74
2021/03/27 13:05:07;;;;;;;19.03;6.58;;;;;;;19.50;34.05;99141.25;248552;1161;115729;-74
2021/03/27 13:10:28;;;;;;;16.38;7.60;;;;;;;19.15;33.69;99162.52;248541;1154;115133;-74
2021/03/27 13:15:52;;;;;;;14.53;6.60;;;;;;;18.88;33.85;99166.00;247474;1154;114804;-75
2021/03/27 13:21:15;;;;;;;14.93;8.10;;;;;;;18.68;33.86;99181.34;248527;1153;115144;-73
2021/03/27 13:26:23;;;;;;;16.48;8.10;;;;;;;18.52;34.25;99185.61;248452;1154;114855;-75
2021/03/27 13:31:36;;;;;;;13.28;7.93;;;;;;;18.40;34.02;99185.73;248040;1154;115178;-75
2021/03/27 13:37:02;;;;;;;14.28;8.00;;;;;;;18.34;33.83;99177.36;248536;1154;114719;-73
2021/03/27 13:42:27;;;;;;;12.80;7.80;;;;;;;18.25;33.90;99186.30;248465;1162;115043;-73
2021/03/27 13:47:40;;;;;;;13.08;9.38;;;;;;;18.18;34.00;99205.72;248417;1155;115028;-73
2021/03/27 13:53:04;;;;;;;12.03;8.45;;;;;;;18.08;34.36;99194.08;248480;1154;115411;-73
2021/03/27 13:58:21;;;;;;;14.95;8.78;;;;;;;18.01;34.63;99190.23;247325;1154;115144;-74
2021/03/27 14:03:35;;;;;;;12.98;8.55;;;;;;;17.90;34.47;99201.10;248455;1161;114935;-81
2021/03/27 14:08:47;;;;;;;15.55;8.10;;;;;;;17.85;34.87;99203.38;248525;1154;114999;-73
2021/03/27 14:14:04;;;;;;;18.08;8.85;;;;;;;17.76;34.97;99215.80;248496;1153;115287;-73
2021/03/27 14:19:18;;;;;;;15.75;9.90;;;;;;;17.66;34.78;99215.76;248702;1154;115363;-73
2021/03/27 14:24:35;;;;;;;20.65;9.55;;;;;;;17.55;35.03;99215.83;248511;1162;114973;-73
2021/03/27 14:30:07;;;;;;;20.08;10.28;;;;;;;17.47;35.27;99223.74;248586;1154;114860;-73
2021/03/27 14:35:48;;;;;;;19.98;10.30;;;;;;;17.39;35.57;99226.23;248524;1162;115233;-73
2021/03/27 14:41:19;;;;;;;20.43;10.25;;;;;;;17.32;36.16;99233.13;248593;1154;115224;-83
2021/03/27 14:46:55;;;;;;;20.03;10.23;;;;;;;17.28;36.11;99245.16;248542;1154;115224;-82
2021/03/27 14:52:03;;;;;;;20.33;9.80;;;;;;;17.19;36.71;99247.66;246633;1162;115214;-83
2021/03/27 14:57:16;;;;;;;17.47;8.60;;;;;;;17.09;36.98;99260.20;247769;1155;115059;-81
2021/03/27 15:02:34;;;;;;;15.88;8.63;;;;;;;17.00;37.67;99256.44;248584;1155;115031;-84
2021/03/27 15:07:58;;;;;;;19.15;10.60;;;;;;;16.91;37.69;99267.12;247410;1153;115037;-83
2021/03/27 15:13:22;;;;;;;19.25;10.23;;;;;;;16.83;38.04;99273.15;248439;1154;115134;-81
2021/03/27 15:18:38;;;;;;;20.20;10.53;;;;;;;16.66;38.23;99271.84;248522;1162;115672;-83
2021/03/27 15:23:55;;;;;;;17.15;11.08;;;;;;;16.58;38.70;99289.60;248056;1155;115719;-82
2021/03/27 15:29:07;;;;;;;18.53;10.90;;;;;;;16.36;39.19;99295.88;245938;1155;115458;-82
2021/03/27 15:34:19;;;;;;;15.70;11.28;;;;;;;16.21;39.50;99303.36;248459;1155;115317;-81
2021/03/27 15:39:48;;;;;;;17.58;11.28;;;;;;;16.03;39.55;99316.41;248550;1153;114915;-83
2021/03/27 15:45:06;;;;;;;18.60;11.23;;;;;;;15.88;40.40;99331.92;246447;1162;115539;-80
2021/03/27 15:50:41;;;;;;;17.83;11.75;;;;;;;15.67;40.86;99345.20;248509;1154;115303;-80
2021/03/27 15:56:13;;;;;;;23.50;13.65;;;;;;;15.50;41.42;99364.41;248576;1154;115258;-82
2021/03/27 16:01:19;;;;;;;23.25;14.38;;;;;;;15.38;42.17;99380.45;248535;1154;115512;-81
2021/03/27 16:06:44;;;;;;;24.68;13.48;;;;;;;15.27;42.29;99403.70;247424;1155;115312;-81
2021/03/27 16:12:10;;;;;;;18.43;12.70;;;;;;;15.01;42.86;99427.09;247623;1162;115336;-83
2021/03/27 16:17:50;;;;;;;24.63;14.95;;;;;;;14.74;43.61;99454.97;248564;1154;115219;-83
2021/03/27 16:22:59;;;;;;;20.83;13.90;;;;;;;14.48;44.17;99461.30;248568;1154;115250;-76
2021/03/27 16:28:04;;;;;;;15.93;9.45;;;;;;;14.28;44.41;99484.13;248432;1154;115080;-74
2021/03/27 16:33:30;;;;;;;12.48;6.95;;;;;;;13.97;45.27;99502.32;248759;1154;115314;-75
2021/03/27 16:38:48;;;;;;;7.98;4.35;;;;;;;13.69;45.49;99516.72;248216;1154;115337;-75
2021/03/27 16:44:18;;;;;;;5.48;3.53;;;;;;;13.46;45.63;99534.29;248789;1154;114636;-79
2021/03/27 16:49:37;;;;;;;6.27;2.43;;;;;;;13.23;45.15;99551.80;247761;1154;116745;-81
2021/03/27 16:54:50;;;;;;;3.95;2.58;;;;;;;13.05;45.35;99574.37;248526;1154;115591;-82
2021/03/27 17:00:09;;;;;;;7.35;3.30;;;;;;;12.95;46.25;99569.59;248127;1154;114797;-81
2021/03/27 17:05:22;;;;;;;4.28;2.98;;;;;;;12.85;46.39;99578.29;247915;1154;114955;-85
2021/03/27 17:10:47;;;;;;;5.73;3.68;;;;;;;12.75;46.75;99589.54;246845;1161;114408;-82
2021/03/27 17:16:26;;;;;;;8.88;4.55;;;;;;;12.67;46.58;99601.64;247928;1154;114889;-84
2021/03/27 17:21:53;;;;;;;7.78;4.65;;;;;;;12.51;46.67;99609.75;248259;1162;114893;-84
2021/03/27 17:27:12;;;;;;;7.75;4.13;;;;;;;12.40;47.12;99621.08;248739;1154;114671;-84
2021/03/27 17:32:31;;;;;;;6.20;4.30;;;;;;;12.34;47.86;99631.27;247893;1161;114663;-81
2021/03/27 17:37:38;;;;;;;11.93;4.30;;;;;;;12.22;48.25;99635.50;248531;1161;114784;-86
2021/03/27 17:43:03;;;;;;;7.00;4.03;;;;;;;12.14;48.09;99641.30;247507;1155;115147;-82
2021/03/27 17:48:24;;;;;;;9.60;4.20;;;;;;;12.14;48.58;99653.78;248171;1154;115290;-84
2021/03/27 17:53:36;;;;;;;9.53;4.88;;;;;;;12.00;48.44;99668.78;247389;1154;114937;-85
2021/03/27 17:58:52;;;;;;;9.88;4.63;;;;;;;11.94;49.16;99666.47;248551;1155;115410;-85
2021/03/27 18:04:02;;;;;;;7.28;4.60;;;;;;;11.87;50.00;99665.10;248489;1162;114753;-76
2021/03/27 18:09:07;;;;;;;9.95;5.15;;;;;;;11.90;49.98;99664.93;248490;1154;114785;-76
2021/03/27 18:14:32;;;;;;;8.30;5.20;;;;;;;11.91;50.08;99658.64;248477;1155;114634;-75
2021/03/27 18:19:42;;;;;;;9.00;5.68;;;;;;;11.90;50.63;99658.73;248503;1154;114723;-74
2021/03/27 18:24:57;;;;;;;10.18;5.88;;;;;;;11.83;51.33;99667.05;248467;1162;115294;-75
2021/03/27 18:30:02;;;;;;;12.45;7.20;;;;;;;11.73;50.94;99689.00;247754;1154;115337;-75
2021/03/27 18:35:16;;;;;;;15.15;8.58;;;;;;;11.69;52.13;99684.80;248376;1154;115993;-76
2021/03/27 18:40:25;;;;;;;16.63;10.10;;;;;;;11.65;51.86;99692.11;247812;1162;115031;-75
2021/03/27 18:45:40;;;;;;;15.85;9.38;;;;;;;11.63;52.69;99699.31;248375;1154;115319;-77
2021/03/27 18:50:59;;;;;;;16.30;10.28;;;;;;;11.55;52.56;99698.89;248349;1154;115345;-76
2021/03/27 18:56:07;;;;;;;14.50;9.63;;;;;;;11.52;53.12;99709.72;248417;1154;115150;-76
2021/03/27 19:01:34;;;;;;;18.18;10.25;;;;;;;11.51;53.27;99710.64;248517;1154;114859;-77
2021/03/27 19:07:01;;;;;;;17.88;9.58;;;;;;;11.48;54.08;99721.47;248459;1153;115356;-77
2021/03/27 19:12:15;;;;;;;13.95;8.98;;;;;;;11.44;54.11;99727.92;248537;1154;115631;-76
2021/03/27 19:17:40;;;;;;;16.95;9.88;;;;;;;11.42;54.09;99733.34;247830;1154;115229;-76
2021/03/27 19:23:14;;;;;;;19.68;9.80;;;;;;;11.37;54.41;99736.24;248507;1162;115213;-78
2021/03/27 19:28:26;;;;;;;14.88;8.78;;;;;;;11.33;54.53;99736.50;248487;1154;114791;-78
2021/03/27 19:33:35;;;;;;;14.70;8.00;;;;;;;11.28;54.87;99735.91;248320;1154;115821;-78
2021/03/27 19:38:40;;;;;;;12.70;8.25;;;;;;;11.28;55.22;99749.23;248663;1154;115044;-80
2021/03/27 19:43:54;;;;;;;15.77;8.47;;;;;;;11.26;55.29;99759.95;248343;1155;114910;-78
2021/03/27 19:48:57;;;;;;;15.05;8.25;;;;;;;11.24;55.16;99758.30;248596;1152;115093;-78
2021/03/27 19:54:10;;;;;;;16.63;8.60;;;;;;;11.20;55.94;99759.41;246656;1155;115457;-78
2021/03/27 19:59:30;;;;;;;12.60;8.08;;;;;;;11.14;56.06;99768.61;248511;1154;115070;-76
2021/03/27 20:04:56;;;;;;;15.48;8.63;;;;;;;11.07;55.79;99783.16;248409;1154;115250;-78
2021/03/27 20:10:12;;;;;;;13.80;7.73;;;;;;;11.06;56.02;99770.80;248487;1153;114853;-77
2021/03/27 20:15:26;;;;;;;14.38;8.40;;;;;;;11.01;56.35;99773.71;247459;1161;115405;-77
2021/03/27 20:20:41;;;;;;;13.30;8.00;;;;;;;11.00;56.22;99779.10;248529;1154;114930;-86
2021/03/27 20:26:03;;;;;;;11.80;7.37;;;;;;;10.99;56.30;99785.38;248296;1155;114742;-85
2021/03/27 20:31:22;;;;;;;15.00;8.00;;;;;;;10.96;56.99;99788.20;246584;1155;114958;-85
2021/03/27 20:36:41;;;;;;;15.03;7.83;;;;;;;10.93;56.62;99804.33;248581;1162;114868;-83
2021/03/27 20:42:09;;;;;;;13.05;7.60;;;;;;;10.84;56.61;99824.31;248492;1162;114771;-73
2021/03/27 20:47:18;;;;;;;13.70;8.17;;;;;;;10.72;57.22;99819.59;248587;1154;115710;-72
2021/03/27 20:52:46;;;;;;;13.83;7.78;;;;;;;10.55;57.74;99815.97;248052;1155;114889;-77
2021/03/27 20:58:08;;;;;;;14.13;7.60;;;;;;;10.33;57.59;99869.38;246969;1154;114797;-76
2021/03/27 21:03:16;;;;;;;13.00;6.85;;;;;;;10.21;57.46;99840.66;248650;1154;114939;-74
2021/03/27 21:08:44;;;;;;;11.10;6.93;;;;;;;10.04;57.55;99859.21;248603;1155;115148;-74
2021/03/27 21:13:57;;;;;;;13.43;8.25;;;;;;;9.85;57.94;99868.05;248367;1154;115335;-76
2021/03/27 21:19:26;;;;;;;12.88;8.55;;;;;;;9.77;58.17;99840.94;248550;1154;114525;-76
2021/03/27 21:24:54;;;;;;;11.88;6.68;;;;;;;9.73;58.41;99815.44;248667;1155;114707;-77
2021/03/27 21:30:22;;;;;;;11.98;7.58;;;;;;;9.68;58.36;99785.53;248563;1162;114849;-76
2021/03/27 21:36:05;;;;;;;10.03;6.63;;;;;;;9.67;58.38;99810.39;248599;1155;114752;-76
2021/03/27 21:41:22;;;;;;;9.60;6.67;;;;;;;9.62;58.65;99838.99;248610;1154;114832;-77
2021/03/27 21:46:46;;;;;;;9.75;6.80;;;;;;;9.59;58.90;99850.61;248608;1155;114948;-77
2021/03/27 21:51:58;;;;;;;11.15;6.70;;;;;;;9.51;58.91;99859.84;248594;1152;114951;-82
2021/03/27 21:57:20;;;;;;;13.68;8.00;;;;;;;9.50;59.14;99864.30;248606;1154;114819;-81
2021/03/27 22:02:26;;;;;;;11.08;6.35;;;;;;;9.45;59.69;99874.29;248716;1154;115124;-82
2021/03/27 22:08:09;;;;;;;9.73;6.83;;;;;;;9.42;59.37;99890.36;248444;1162;114760;-84
2021/03/27 22:13:27;;;;;;;7.08;5.40;;;;;;;9.39;59.45;99912.59;246998;1154;115226;-85
2021/03/27 22:18:42;;;;;;;12.40;6.80;;;;;;;9.41;59.50;99926.69;248603;1162;114534;-84
2021/03/27 22:23:54;;;;;;;12.50;8.05;;;;;;;9.42;59.73;99919.58;248715;1154;114640;-84
2021/03/27 22:29:12;;;;;;;14.05;9.25;;;;;;;9.42;59.56;99930.20;248716;1154;115284;-83
2021/03/27 22:34:20;;;;;;;18.57;11.27;;;;;;;9.40;59.93;99942.68;244148;1155;114993;-84
2021/03/27 22:39:26;;;;;;;16.90;10.75;;;;;;;9.39;59.53;99956.91;248612;1154;114975;-83
2021/03/27 22:44:37;;;;;;;17.78;11.30;;;;;;;9.22;59.09;99961.13;248475;1154;115065;-82
2021/03/27 22:49:47;;;;;;;17.17;10.57;;;;;;;9.11;59.05;99963.37;248623;1154;115439;-82
2021/03/27 22:55:08;;;;;;;12.10;8.35;;;;;;;8.96;59.23;99970.15;248446;1154;114939;-84
2021/03/27 23:00:17;;;;;;;14.68;8.30;;;;;;;8.72;58.99;99971.13;248241;1155;115128;-84
2021/03/27 23:05:23;;;;;;;8.78;6.05;;;;;;;8.52;58.95;99982.52;248491;1162;114598;-84
2021/03/27 23:10:46;;;;;;;9.07;6.53;;;;;;;8.33;59.60;99986.78;245827;1154;114744;-81
2021/03/27 23:16:04;;;;;;;12.08;6.88;;;;;;;8.23;59.19;99973.86;248447;1154;114280;-82
2021/03/27 23:21:28;;;;;;;8.60;5.85;;;;;;;8.22;59.99;99977.44;248609;1154;114800;-81
2021/03/27 23:26:38;;;;;;;10.20;6.33;;;;;;;8.24;59.57;99964.97;248710;1154;114462;-84
2021/03/27 23:31:52;;;;;;;13.70;8.60;;;;;;;8.27;60.09;99961.34;248561;1154;114797;-83
2021/03/27 23:36:57;;;;;;;10.00;6.68;;;;;;;8.29;60.86;99965.68;248028;1154;114663;-83
2021/03/27 23:42:29;;;;;;;12.58;6.85;;;;;;;8.24;59.65;99986.19;248520;1162;114974;-83
2021/03/27 23:47:42;;;;;;;9.85;6.80;;;;;;;8.16;60.15;99987.41;248817;1153;114750;-82
2021/03/27 23:52:51;;;;;;;8.78;6.98;;;;;;;8.11;60.20;99986.70;248357;1155;114598;-82
2021/03/27 23:58:23;;;;;;;11.58;7.20;;;;;;;8.06;60.38;99992.18;248778;1153;114749;-83
